sensor_id;sensor_type;location;lat;lon;timestamp;pressure;altitude;pressure_sealevel;temperature;humidity
23261;BME280;11799;47.740;-3.390;2023-01-13T00:02:15;101413.28;;;10.13;92.18
23261;BME280;11799;47.740;-3.390;2023-01-13T00:04:40;101420.44;;;10.11;91.73
23261;BME280;11799;47.740;-3.390;2023-01-13T00:07:06;101439.66;;;10.13;92.35
23261;BME280;11799;47.740;-3.390;2023-01-13T00:09:32;101435.44;;;10.11;92.77
23261;BME280;11799;47.740;-3.390;2023-01-13T00:11:57;101442.50;;;10.10;93.30
23261;BME280;11799;47.740;-3.390;2023-01-13T00:14:23;101436.56;;;10.07;92.70
23261;BME280;11799;47.740;-3.390;2023-01-13T00:16:50;101446.38;;;10.05;93.03
23261;BME280;11799;47.740;-3.390;2023-01-13T00:19:16;101450.91;;;10.03;92.70
23261;BME280;11799;47.740;-3.390;2023-01-13T00:21:41;101447.44;;;10.02;92.53
23261;BME280;11799;47.740;-3.390;2023-01-13T00:24:08;101458.19;;;9.99;92.63
23261;BME280;11799;47.740;-3.390;2023-01-13T00:26:33;101457.44;;;9.97;92.70
23261;BME280;11799;47.740;-3.390;2023-01-13T00:29:01;101460.94;;;9.98;92.34
23261;BME280;11799;47.740;-3.390;2023-01-13T00:31:28;101465.75;;;9.91;92.27
23261;BME280;11799;47.740;-3.390;2023-01-13T00:33:58;101457.09;;;9.89;92.43
23261;BME280;11799;47.740;-3.390;2023-01-13T00:36:25;101455.41;;;9.88;92.23
23261;BME280;11799;47.740;-3.390;2023-01-13T00:38:50;101455.59;;;9.85;92.52
23261;BME280;11799;47.740;-3.390;2023-01-13T00:41:24;101460.97;;;9.83;92.70
23261;BME280;11799;47.740;-3.390;2023-01-13T00:43:50;101456.78;;;9.81;93.20
23261;BME280;11799;47.740;-3.390;2023-01-13T00:46:18;101459.50;;;9.79;93.06
23261;BME280;11799;47.740;-3.390;2023-01-13T00:48:45;101454.97;;;9.81;92.52
23261;BME280;11799;47.740;-3.390;2023-01-13T00:51:19;101446.22;;;9.81;92.75
23261;BME280;11799;47.740;-3.390;2023-01-13T00:53:47;101455.81;;;9.82;92.44
23261;BME280;11799;47.740;-3.390;2023-01-13T00:56:21;101455.69;;;9.83;92.59
23261;BME280;11799;47.740;-3.390;2023-01-13T00:58:48;101451.25;;;9.84;91.76
23261;BME280;11799;47.740;-3.390;2023-01-13T01:01:17;101448.63;;;9.84;91.36
23261;BME280;11799;47.740;-3.390;2023-01-13T01:03:42;101447.78;;;9.83;90.58
23261;BME280;11799;47.740;-3.390;2023-01-13T01:06:12;101439.03;;;9.83;90.13
23261;BME280;11799;47.740;-3.390;2023-01-13T01:08:38;101436.50;;;9.81;89.67
23261;BME280;11799;47.740;-3.390;2023-01-13T01:11:07;101438.41;;;9.79;90.27
23261;BME280;11799;47.740;-3.390;2023-01-13T01:13:34;101442.09;;;9.77;89.64
23261;BME280;11799;47.740;-3.390;2023-01-13T01:16:03;101446.41;;;9.78;89.42
23261;BME280;11799;47.740;-3.390;2023-01-13T01:18:32;101443.78;;;9.78;90.04
23261;BME280;11799;47.740;-3.390;2023-01-13T01:20:59;101441.34;;;9.75;89.56
23261;BME280;11799;47.740;-3.390;2023-01-13T01:23:27;101438.69;;;9.75;89.47
23261;BME280;11799;47.740;-3.390;2023-01-13T01:25:53;101447.56;;;9.74;89.25
23261;BME280;11799;47.740;-3.390;2023-01-13T01:28:18;101446.72;;;9.73;89.85
23261;BME280;11799;47.740;-3.390;2023-01-13T01:30:45;101443.22;;;9.73;90.46
23261;BME280;11799;47.740;-3.390;2023-01-13T01:33:11;101434.75;;;9.68;90.53
23261;BME280;11799;47.740;-3.390;2023-01-13T01:35:39;101437.09;;;9.72;90.54
23261;BME280;11799;47.740;-3.390;2023-01-13T01:38:05;101436.34;;;9.70;90.80
23261;BME280;11799;47.740;-3.390;2023-01-13T01:40:31;101441.63;;;9.70;90.49
23261;BME280;11799;47.740;-3.390;2023-01-13T01:42:57;101435.41;;;9.71;90.40
23261;BME280;11799;47.740;-3.390;2023-01-13T01:45:42;101447.66;;;9.72;90.33
23261;BME280;11799;47.740;-3.390;2023-01-13T01:48:08;101450.19;;;9.74;90.55
23261;BME280;11799;47.740;-3.390;2023-01-13T01:50:34;101442.09;;;9.77;90.83
23261;BME280;11799;47.740;-3.390;2023-01-13T01:53:10;101450.75;;;9.79;90.25
23261;BME280;11799;47.740;-3.390;2023-01-13T01:55:37;101450.53;;;9.82;90.69
23261;BME280;11799;47.740;-3.390;2023-01-13T01:58:11;101451.25;;;9.84;89.46
23261;BME280;11799;47.740;-3.390;2023-01-13T02:00:39;101452.00;;;9.86;89.81
23261;BME280;11799;47.740;-3.390;2023-01-13T02:03:06;101460.66;;;9.88;90.34
23261;BME280;11799;47.740;-3.390;2023-01-13T02:05:33;101462.47;;;9.87;90.17
23261;BME280;11799;47.740;-3.390;2023-01-13T02:07:59;101459.81;;;9.87;90.67
23261;BME280;11799;47.740;-3.390;2023-01-13T02:10:27;101459.81;;;9.87;89.82
23261;BME280;11799;47.740;-3.390;2023-01-13T02:12:55;101470.28;;;9.89;90.42
23261;BME280;11799;47.740;-3.390;2023-01-13T02:17:57;101485.34;;;9.87;91.26
23261;BME280;11799;47.740;-3.390;2023-01-13T02:20:34;101486.31;;;9.86;91.35
23261;BME280;11799;47.740;-3.390;2023-01-13T02:32:25;101489.56;;;9.77;92.66
23261;BME280;11799;47.740;-3.390;2023-01-13T02:35:07;101490.59;;;9.74;92.92
23261;BME280;11799;47.740;-3.390;2023-01-13T02:37:39;101491.53;;;9.73;93.03
23261;BME280;11799;47.740;-3.390;2023-01-13T02:42:52;101487.03;;;9.75;92.86
23261;BME280;11799;47.740;-3.390;2023-01-13T02:45:43;101493.88;;;9.78;92.79
23261;BME280;11799;47.740;-3.390;2023-01-13T02:48:13;101496.34;;;9.81;91.72
23261;BME280;11799;47.740;-3.390;2023-01-13T02:50:52;101503.31;;;9.82;92.24
23261;BME280;11799;47.740;-3.390;2023-01-13T02:53:25;101497.19;;;9.81;91.79
23261;BME280;11799;47.740;-3.390;2023-01-13T02:55:53;101499.81;;;9.81;92.05
23261;BME280;11799;47.740;-3.390;2023-01-13T02:58:25;101495.38;;;9.82;92.00
23261;BME280;11799;47.740;-3.390;2023-01-13T03:00:51;101495.50;;;9.80;91.98
23261;BME280;11799;47.740;-3.390;2023-01-13T03:03:17;101509.41;;;9.82;91.84
23261;BME280;11799;47.740;-3.390;2023-01-13T03:05:45;101503.41;;;9.80;92.32
23261;BME280;11799;47.740;-3.390;2023-01-13T03:16:34;101533.94;;;9.70;94.40
23261;BME280;11799;47.740;-3.390;2023-01-13T03:21:58;101530.75;;;9.65;94.97
23261;BME280;11799;47.740;-3.390;2023-01-13T03:27:26;101526.03;;;9.56;95.17
23261;BME280;11799;47.740;-3.390;2023-01-13T03:30:02;101530.84;;;9.49;95.05
23261;BME280;11799;47.740;-3.390;2023-01-13T03:35:06;101526.88;;;9.42;95.12
23261;BME280;11799;47.740;-3.390;2023-01-13T03:37:37;101524.44;;;9.39;94.99
23261;BME280;11799;47.740;-3.390;2023-01-13T03:40:14;101528.19;;;9.35;95.03
23261;BME280;11799;47.740;-3.390;2023-01-13T03:42:43;101529.13;;;9.34;94.85
23261;BME280;11799;47.740;-3.390;2023-01-13T03:45:32;101534.59;;;9.31;94.83
23261;BME280;11799;47.740;-3.390;2023-01-13T03:48:04;101541.75;;;9.29;94.80
23261;BME280;11799;47.740;-3.390;2023-01-13T03:50:36;101545.41;;;9.26;95.10
23261;BME280;11799;47.740;-3.390;2023-01-13T03:55:36;101554.41;;;9.24;95.18
23261;BME280;11799;47.740;-3.390;2023-01-13T03:58:13;101553.72;;;9.20;94.53
23261;BME280;11799;47.740;-3.390;2023-01-13T04:00:48;101562.47;;;9.21;94.38
23261;BME280;11799;47.740;-3.390;2023-01-13T04:03:31;101564.19;;;9.22;94.64
23261;BME280;11799;47.740;-3.390;2023-01-13T04:08:47;101552.13;;;9.18;94.41
23261;BME280;11799;47.740;-3.390;2023-01-13T04:11:45;101550.44;;;9.17;93.90
23261;BME280;11799;47.740;-3.390;2023-01-13T04:14:11;101560.13;;;9.16;93.56
23261;BME280;11799;47.740;-3.390;2023-01-13T04:16:39;101562.00;;;9.14;92.97
23261;BME280;11799;47.740;-3.390;2023-01-13T04:19:05;101573.38;;;9.15;93.11
23261;BME280;11799;47.740;-3.390;2023-01-13T04:21:31;101575.28;;;9.13;93.13
23261;BME280;11799;47.740;-3.390;2023-01-13T04:23:58;101588.53;;;9.11;92.42
23261;BME280;11799;47.740;-3.390;2023-01-13T04:26:24;101587.69;;;9.11;92.23
23261;BME280;11799;47.740;-3.390;2023-01-13T04:28:49;101586.00;;;9.10;92.27
23261;BME280;11799;47.740;-3.390;2023-01-13T04:31:16;101589.56;;;9.09;92.13
23261;BME280;11799;47.740;-3.390;2023-01-13T04:33:42;101579.38;;;9.03;91.75
23261;BME280;11799;47.740;-3.390;2023-01-13T04:36:07;101595.09;;;9.04;91.47
23261;BME280;11799;47.740;-3.390;2023-01-13T04:38:33;101585.50;;;9.03;91.11
23261;BME280;11799;47.740;-3.390;2023-01-13T04:40:59;101588.91;;;9.05;91.15
23261;BME280;11799;47.740;-3.390;2023-01-13T04:43:24;101599.53;;;9.04;91.61
23261;BME280;11799;47.740;-3.390;2023-01-13T04:45:50;101588.22;;;9.02;91.46
23261;BME280;11799;47.740;-3.390;2023-01-13T04:48:15;101596.13;;;9.02;91.06
23261;BME280;11799;47.740;-3.390;2023-01-13T04:50:41;101601.41;;;9.02;90.96
23261;BME280;11799;47.740;-3.390;2023-01-13T04:53:07;101606.75;;;9.00;90.85
23261;BME280;11799;47.740;-3.390;2023-01-13T04:55:32;101600.56;;;9.01;91.24
23261;BME280;11799;47.740;-3.390;2023-01-13T04:58:04;101612.97;;;8.99;90.70
23261;BME280;11799;47.740;-3.390;2023-01-13T05:00:29;101612.13;;;8.99;90.38
23261;BME280;11799;47.740;-3.390;2023-01-13T05:02:56;101619.25;;;8.97;89.90
23261;BME280;11799;47.740;-3.390;2023-01-13T05:05:22;101628.94;;;8.96;89.96
23261;BME280;11799;47.740;-3.390;2023-01-13T05:07:47;101631.50;;;8.98;89.99
23261;BME280;11799;47.740;-3.390;2023-01-13T05:10:13;101635.75;;;9.00;89.91
23261;BME280;11799;47.740;-3.390;2023-01-13T05:12:39;101638.19;;;9.03;90.21
23261;BME280;11799;47.740;-3.390;2023-01-13T05:15:23;101633.59;;;9.07;89.33
23261;BME280;11799;47.740;-3.390;2023-01-13T05:18:08;101629.09;;;9.09;89.61
23261;BME280;11799;47.740;-3.390;2023-01-13T05:20:34;101641.31;;;9.10;89.95
23261;BME280;11799;47.740;-3.390;2023-01-13T05:22:59;101641.22;;;9.11;90.38
23261;BME280;11799;47.740;-3.390;2023-01-13T05:25:46;101633.41;;;9.10;89.59
23261;BME280;11799;47.740;-3.390;2023-01-13T05:28:11;101632.56;;;9.09;89.43
23261;BME280;11799;47.740;-3.390;2023-01-13T05:30:43;101634.34;;;9.09;89.87
23261;BME280;11799;47.740;-3.390;2023-01-13T05:33:09;101639.63;;;9.09;89.91
23261;BME280;11799;47.740;-3.390;2023-01-13T05:35:44;101645.06;;;9.06;89.29
23261;BME280;11799;47.740;-3.390;2023-01-13T05:38:10;101653.75;;;9.08;89.66
23261;BME280;11799;47.740;-3.390;2023-01-13T05:40:37;101647.78;;;9.04;90.27
23261;BME280;11799;47.740;-3.390;2023-01-13T05:43:23;101643.56;;;9.02;90.14
23261;BME280;11799;47.740;-3.390;2023-01-13T05:46:07;101636.41;;;9.04;89.88
23261;BME280;11799;47.740;-3.390;2023-01-13T05:48:34;101633.69;;;9.05;89.99
23261;BME280;11799;47.740;-3.390;2023-01-13T05:51:01;101644.41;;;9.02;89.96
23261;BME280;11799;47.740;-3.390;2023-01-13T05:53:27;101636.75;;;8.98;90.37
23261;BME280;11799;47.740;-3.390;2023-01-13T05:55:53;101654.28;;;8.99;90.09
23261;BME280;11799;47.740;-3.390;2023-01-13T05:58:20;101639.41;;;8.98;89.70
23261;BME280;11799;47.740;-3.390;2023-01-13T06:00:47;101645.53;;;8.98;90.38
23261;BME280;11799;47.740;-3.390;2023-01-13T06:03:13;101643.72;;;8.99;90.25
23261;BME280;11799;47.740;-3.390;2023-01-13T06:05:40;101649.00;;;8.99;90.20
23261;BME280;11799;47.740;-3.390;2023-01-13T06:08:06;101654.34;;;8.97;90.20
23261;BME280;11799;47.740;-3.390;2023-01-13T06:10:33;101656.91;;;8.99;90.60
23261;BME280;11799;47.740;-3.390;2023-01-13T06:12:59;101664.91;;;8.97;90.14
23261;BME280;11799;47.740;-3.390;2023-01-13T06:15:25;101671.00;;;8.98;90.20
23261;BME280;11799;47.740;-3.390;2023-01-13T06:17:51;101677.13;;;8.98;89.72
23261;BME280;11799;47.740;-3.390;2023-01-13T06:20:17;101670.06;;;8.99;89.69
23261;BME280;11799;47.740;-3.390;2023-01-13T06:22:47;101670.06;;;8.99;89.22
23261;BME280;11799;47.740;-3.390;2023-01-13T06:25:18;101680.63;;;8.99;88.21
23261;BME280;11799;47.740;-3.390;2023-01-13T06:27:45;101680.69;;;8.97;88.34
23261;BME280;11799;47.740;-3.390;2023-01-13T06:30:11;101692.94;;;8.98;87.94
23261;BME280;11799;47.740;-3.390;2023-01-13T06:32:42;101684.94;;;9.00;88.52
23261;BME280;11799;47.740;-3.390;2023-01-13T06:35:12;101687.59;;;9.00;88.14
23261;BME280;11799;47.740;-3.390;2023-01-13T06:37:38;101676.28;;;8.98;88.34
23261;BME280;11799;47.740;-3.390;2023-01-13T06:40:06;101691.16;;;8.99;88.26
23261;BME280;11799;47.740;-3.390;2023-01-13T06:42:33;101699.06;;;8.99;88.54
23261;BME280;11799;47.740;-3.390;2023-01-13T06:45:20;101703.31;;;9.01;88.29
23261;BME280;11799;47.740;-3.390;2023-01-13T06:47:46;101701.44;;;9.03;88.43
23261;BME280;11799;47.740;-3.390;2023-01-13T06:50:12;101713.56;;;9.06;88.88
23261;BME280;11799;47.740;-3.390;2023-01-13T06:52:37;101712.81;;;9.04;89.00
23261;BME280;11799;47.740;-3.390;2023-01-13T06:55:03;101720.72;;;9.04;88.72
23261;BME280;11799;47.740;-3.390;2023-01-13T06:57:29;101723.28;;;9.05;89.38
23261;BME280;11799;47.740;-3.390;2023-01-13T06:59:54;101718.84;;;9.06;89.48
23261;BME280;11799;47.740;-3.390;2023-01-13T07:02:20;101727.59;;;9.06;90.03
23261;BME280;11799;47.740;-3.390;2023-01-13T07:04:46;101727.50;;;9.08;89.83
23261;BME280;11799;47.740;-3.390;2023-01-13T07:07:12;101730.06;;;9.09;89.61
23261;BME280;11799;47.740;-3.390;2023-01-13T07:09:38;101727.25;;;9.12;89.61
23261;BME280;11799;47.740;-3.390;2023-01-13T07:12:04;101728.97;;;9.13;89.45
23261;BME280;11799;47.740;-3.390;2023-01-13T07:14:30;101725.38;;;9.14;89.07
23261;BME280;11799;47.740;-3.390;2023-01-13T07:17:14;101731.50;;;9.15;88.44
23261;BME280;11799;47.740;-3.390;2023-01-13T07:19:40;101737.63;;;9.15;88.07
23261;BME280;11799;47.740;-3.390;2023-01-13T07:22:05;101738.56;;;9.14;87.44
23261;BME280;11799;47.740;-3.390;2023-01-13T07:24:31;101743.91;;;9.13;87.64
23261;BME280;11799;47.740;-3.390;2023-01-13T07:26:57;101741.38;;;9.11;87.29
23261;BME280;11799;47.740;-3.390;2023-01-13T07:29:22;101744.00;;;9.11;87.01
23261;BME280;11799;47.740;-3.390;2023-01-13T07:31:48;101744.09;;;9.10;86.87
23261;BME280;11799;47.740;-3.390;2023-01-13T07:34:14;101752.84;;;9.10;86.36
23261;BME280;11799;47.740;-3.390;2023-01-13T07:36:39;101758.19;;;9.09;86.60
23261;BME280;11799;47.740;-3.390;2023-01-13T07:39:05;101759.13;;;9.08;86.67
23261;BME280;11799;47.740;-3.390;2023-01-13T07:41:31;101767.03;;;9.08;86.84
23261;BME280;11799;47.740;-3.390;2023-01-13T07:44:15;101775.03;;;9.06;86.71
23261;BME280;11799;47.740;-3.390;2023-01-13T07:46:41;101785.47;;;9.08;86.40
23261;BME280;11799;47.740;-3.390;2023-01-13T07:49:07;101780.22;;;9.08;86.39
23261;BME280;11799;47.740;-3.390;2023-01-13T07:51:37;101794.31;;;9.07;86.50
23261;BME280;11799;47.740;-3.390;2023-01-13T07:54:04;101806.56;;;9.08;85.95
23261;BME280;11799;47.740;-3.390;2023-01-13T07:56:29;101805.72;;;9.07;86.37
23261;BME280;11799;47.740;-3.390;2023-01-13T07:58:55;101811.84;;;9.08;87.17
23261;BME280;11799;47.740;-3.390;2023-01-13T08:01:22;101811.84;;;9.08;87.12
23261;BME280;11799;47.740;-3.390;2023-01-13T08:03:48;101824.06;;;9.09;87.30
23261;BME280;11799;47.740;-3.390;2023-01-13T08:06:13;101815.31;;;9.08;87.56
23261;BME280;11799;47.740;-3.390;2023-01-13T08:08:39;101822.22;;;9.11;87.28
23261;BME280;11799;47.740;-3.390;2023-01-13T08:11:06;101827.31;;;9.14;87.83
23261;BME280;11799;47.740;-3.390;2023-01-13T08:13:32;101825.59;;;9.13;87.83
23261;BME280;11799;47.740;-3.390;2023-01-13T08:16:00;101822.81;;;9.16;88.67
23261;BME280;11799;47.740;-3.390;2023-01-13T08:18:26;101831.56;;;9.16;88.68
23261;BME280;11799;47.740;-3.390;2023-01-13T08:20:52;101827.13;;;9.17;88.68
23261;BME280;11799;47.740;-3.390;2023-01-13T08:23:18;101832.41;;;9.17;88.43
23261;BME280;11799;47.740;-3.390;2023-01-13T08:25:44;101834.09;;;9.18;87.74
23261;BME280;11799;47.740;-3.390;2023-01-13T08:28:11;101832.25;;;9.20;87.36
23261;BME280;11799;47.740;-3.390;2023-01-13T08:30:36;101831.22;;;9.22;86.60
23261;BME280;11799;47.740;-3.390;2023-01-13T08:33:05;101839.84;;;9.24;85.81
23261;BME280;11799;47.740;-3.390;2023-01-13T08:35:32;101838.00;;;9.26;85.75
23261;BME280;11799;47.740;-3.390;2023-01-13T08:37:58;101830.84;;;9.28;86.15
23261;BME280;11799;47.740;-3.390;2023-01-13T08:40:23;101831.69;;;9.29;85.39
23261;BME280;11799;47.740;-3.390;2023-01-13T08:42:49;101843.84;;;9.32;85.17
23261;BME280;11799;47.740;-3.390;2023-01-13T08:45:17;101836.78;;;9.32;84.88
23261;BME280;11799;47.740;-3.390;2023-01-13T08:47:42;101843.69;;;9.35;85.08
23261;BME280;11799;47.740;-3.390;2023-01-13T08:50:09;101839.09;;;9.38;84.90
23261;BME280;11799;47.740;-3.390;2023-01-13T08:52:35;101848.94;;;9.50;84.55
23261;BME280;11799;47.740;-3.390;2023-01-13T08:55:01;101839.56;;;9.60;84.35
23261;BME280;11799;47.740;-3.390;2023-01-13T08:57:27;101841.50;;;9.73;84.92
23261;BME280;11799;47.740;-3.390;2023-01-13T08:59:53;101836.81;;;9.78;85.29
23261;BME280;11799;47.740;-3.390;2023-01-13T09:02:20;101843.59;;;9.82;84.87
23261;BME280;11799;47.740;-3.390;2023-01-13T09:04:47;101853.94;;;9.85;84.73
23261;BME280;11799;47.740;-3.390;2023-01-13T09:07:13;101858.19;;;9.87;84.83
23261;BME280;11799;47.740;-3.390;2023-01-13T09:09:39;101851.91;;;9.90;85.65
23261;BME280;11799;47.740;-3.390;2023-01-13T09:12:05;101864.16;;;9.91;85.96
23261;BME280;11799;47.740;-3.390;2023-01-13T09:14:49;101871.88;;;9.94;86.39
23261;BME280;11799;47.740;-3.390;2023-01-13T09:17:15;101864.81;;;9.94;86.34
23261;BME280;11799;47.740;-3.390;2023-01-13T09:19:41;101864.72;;;9.96;86.96
23261;BME280;11799;47.740;-3.390;2023-01-13T09:22:13;101868.41;;;9.93;86.69
23261;BME280;11799;47.740;-3.390;2023-01-13T09:24:39;101869.25;;;9.94;85.82
23261;BME280;11799;47.740;-3.390;2023-01-13T09:27:04;101867.47;;;9.94;86.20
23261;BME280;11799;47.740;-3.390;2023-01-13T09:29:30;101865.66;;;9.95;86.16
23261;BME280;11799;47.740;-3.390;2023-01-13T09:31:55;101872.81;;;9.93;85.86
23261;BME280;11799;47.740;-3.390;2023-01-13T09:34:22;101882.53;;;9.92;85.33
23261;BME280;11799;47.740;-3.390;2023-01-13T09:37:07;101882.53;;;9.92;84.57
23261;BME280;11799;47.740;-3.390;2023-01-13T09:39:33;101879.97;;;9.91;85.23
23261;BME280;11799;47.740;-3.390;2023-01-13T09:42:12;101894.97;;;9.90;84.87
23261;BME280;11799;47.740;-3.390;2023-01-13T09:45:05;101898.53;;;9.89;84.72
23261;BME280;11799;47.740;-3.390;2023-01-13T09:48:06;101903.72;;;9.91;84.95
23261;BME280;11799;47.740;-3.390;2023-01-13T09:53:16;101913.84;;;9.99;85.30
23261;BME280;11799;47.740;-3.390;2023-01-13T09:55:44;101919.34;;;10.10;85.21
23261;BME280;11799;47.740;-3.390;2023-01-13T09:58:15;101917.56;;;10.26;84.25
23261;BME280;11799;47.740;-3.390;2023-01-13T10:00:46;101929.09;;;10.53;84.47
23261;BME280;11799;47.740;-3.390;2023-01-13T10:03:25;101926.88;;;10.90;84.81
23261;BME280;11799;47.740;-3.390;2023-01-13T10:10:52;101947.91;;;11.61;81.87
23261;BME280;11799;47.740;-3.390;2023-01-13T10:13:26;101951.00;;;11.82;79.61
23261;BME280;11799;47.740;-3.390;2023-01-13T10:16:06;101958.34;;;11.91;78.93
23261;BME280;11799;47.740;-3.390;2023-01-13T10:29:54;101966.41;;;11.61;79.28
23261;BME280;11799;47.740;-3.390;2023-01-13T10:32:19;101973.91;;;11.54;79.09
23261;BME280;11799;47.740;-3.390;2023-01-13T10:34:47;101977.81;;;11.49;79.90
23261;BME280;11799;47.740;-3.390;2023-01-13T10:37:27;101991.41;;;11.43;80.99
23261;BME280;11799;47.740;-3.390;2023-01-13T10:39:54;101990.00;;;11.37;80.57
23261;BME280;11799;47.740;-3.390;2023-01-13T10:42:21;101998.22;;;11.33;80.91
23261;BME280;11799;47.740;-3.390;2023-01-13T10:44:54;101995.00;;;11.28;81.60
23261;BME280;11799;47.740;-3.390;2023-01-13T10:47:36;101997.19;;;11.21;82.01
23261;BME280;11799;47.740;-3.390;2023-01-13T10:52:32;101992.75;;;11.21;83.17
23261;BME280;11799;47.740;-3.390;2023-01-13T10:55:26;101981.22;;;11.22;83.28
23261;BME280;11799;47.740;-3.390;2023-01-13T10:57:53;101983.88;;;11.22;83.23
23261;BME280;11799;47.740;-3.390;2023-01-13T11:00:31;101987.34;;;11.23;83.17
23261;BME280;11799;47.740;-3.390;2023-01-13T11:05:56;101991.88;;;11.21;83.29
23261;BME280;11799;47.740;-3.390;2023-01-13T11:08:31;101998.97;;;11.20;83.80
23261;BME280;11799;47.740;-3.390;2023-01-13T11:11:42;102012.09;;;11.22;83.13
23261;BME280;11799;47.740;-3.390;2023-01-13T11:14:19;102009.38;;;11.23;82.22
23261;BME280;11799;47.740;-3.390;2023-01-13T11:19:59;102009.38;;;11.23;82.78
23261;BME280;11799;47.740;-3.390;2023-01-13T11:22:31;102012.75;;;11.25;83.68
23261;BME280;11799;47.740;-3.390;2023-01-13T11:25:00;102011.06;;;11.24;83.11
23261;BME280;11799;47.740;-3.390;2023-01-13T11:35:41;102011.91;;;11.25;82.98
23261;BME280;11799;47.740;-3.390;2023-01-13T11:38:16;102004.84;;;11.25;83.90
23261;BME280;11799;47.740;-3.390;2023-01-13T11:40:48;102010.03;;;11.27;83.34
23261;BME280;11799;47.740;-3.390;2023-01-13T11:43:19;101996.72;;;11.29;84.31
23261;BME280;11799;47.740;-3.390;2023-01-13T11:45:55;101997.66;;;11.28;83.82
23261;BME280;11799;47.740;-3.390;2023-01-13T11:48:24;101996.72;;;11.29;82.84
23261;BME280;11799;47.740;-3.390;2023-01-13T11:51:59;101995.75;;;11.30;84.08
23261;BME280;11799;47.740;-3.390;2023-01-13T11:54:39;102000.09;;;11.31;83.85
23261;BME280;11799;47.740;-3.390;2023-01-13T12:00:19;101987.63;;;11.33;83.81
23261;BME280;11799;47.740;-3.390;2023-01-13T12:05:38;101984.91;;;11.34;83.04
23261;BME280;11799;47.740;-3.390;2023-01-13T12:08:11;101991.78;;;11.37;82.27
23261;BME280;11799;47.740;-3.390;2023-01-13T12:10:54;102002.28;;;11.38;83.94
23261;BME280;11799;47.740;-3.390;2023-01-13T12:13:29;102003.13;;;11.39;82.71
23261;BME280;11799;47.740;-3.390;2023-01-13T12:19:06;102002.00;;;11.43;82.99
23261;BME280;11799;47.740;-3.390;2023-01-13T12:25:24;102019.56;;;11.44;82.48
23261;BME280;11799;47.740;-3.390;2023-01-13T12:27:57;102008.88;;;11.45;82.55
23261;BME280;11799;47.740;-3.390;2023-01-13T12:30:29;102016.06;;;11.43;83.23
23261;BME280;11799;47.740;-3.390;2023-01-13T12:33:25;102020.59;;;11.41;82.29
23261;BME280;11799;47.740;-3.390;2023-01-13T12:38:47;102019.75;;;11.41;82.05
23261;BME280;11799;47.740;-3.390;2023-01-13T12:41:46;102020.78;;;11.38;82.70
23261;BME280;11799;47.740;-3.390;2023-01-13T12:44:32;102019.19;;;11.36;83.38
23261;BME280;11799;47.740;-3.390;2023-01-13T12:46:59;102018.34;;;11.35;83.21
23261;BME280;11799;47.740;-3.390;2023-01-13T12:49:32;102024.47;;;11.36;83.45
23261;BME280;11799;47.740;-3.390;2023-01-13T12:52:10;102030.72;;;11.35;82.87
23261;BME280;11799;47.740;-3.390;2023-01-13T12:59:44;102016.44;;;11.37;82.41
23261;BME280;11799;47.740;-3.390;2023-01-13T13:04:47;102011.34;;;11.34;82.10
23261;BME280;11799;47.740;-3.390;2023-01-13T13:07:45;102004.44;;;11.32;82.75
23261;BME280;11799;47.740;-3.390;2023-01-13T13:10:18;102008.88;;;11.31;83.29
23261;BME280;11799;47.740;-3.390;2023-01-13T13:15:30;102003.59;;;11.31;83.64
23261;BME280;11799;47.740;-3.390;2023-01-13T13:26:27;102013.91;;;11.21;83.58
23261;BME280;11799;47.740;-3.390;2023-01-13T13:32:00;102019.47;;;11.17;83.22
23261;BME280;11799;47.740;-3.390;2023-01-13T13:40:40;102010.00;;;11.13;83.92
23261;BME280;11799;47.740;-3.390;2023-01-13T13:43:26;102010.13;;;11.11;84.23
23261;BME280;11799;47.740;-3.390;2023-01-13T13:49:09;102005.09;;;11.07;85.83
23261;BME280;11799;47.740;-3.390;2023-01-13T13:51:42;101999.72;;;11.08;85.96
23261;BME280;11799;47.740;-3.390;2023-01-13T13:54:15;102000.56;;;11.09;86.77
23261;BME280;11799;47.740;-3.390;2023-01-13T13:56:44;101999.81;;;11.07;87.65
23261;BME280;11799;47.740;-3.390;2023-01-13T13:59:14;102003.31;;;11.07;87.80
23261;BME280;11799;47.740;-3.390;2023-01-13T14:01:43;102006.81;;;11.08;87.65
23261;BME280;11799;47.740;-3.390;2023-01-13T14:04:21;102006.81;;;11.08;88.57
23261;BME280;11799;47.740;-3.390;2023-01-13T14:06:57;102002.19;;;11.11;88.58
23261;BME280;11799;47.740;-3.390;2023-01-13T14:09:25;101995.94;;;11.12;89.55
23261;BME280;11799;47.740;-3.390;2023-01-13T14:12:04;102000.28;;;11.13;89.69
23261;BME280;11799;47.740;-3.390;2023-01-13T14:14:31;101991.41;;;11.14;89.67
23261;BME280;11799;47.740;-3.390;2023-01-13T14:16:56;101980.00;;;11.14;88.94
23261;BME280;11799;47.740;-3.390;2023-01-13T14:19:29;101977.25;;;11.15;89.24
23261;BME280;11799;47.740;-3.390;2023-01-13T14:21:57;101979.06;;;11.15;89.57
23261;BME280;11799;47.740;-3.390;2023-01-13T14:24:24;101972.16;;;11.12;88.53
23261;BME280;11799;47.740;-3.390;2023-01-13T14:26:50;101981.78;;;11.13;88.43
23261;BME280;11799;47.740;-3.390;2023-01-13T14:29:21;101978.28;;;11.13;88.85
23261;BME280;11799;47.740;-3.390;2023-01-13T14:31:49;101984.34;;;11.15;89.39
23261;BME280;11799;47.740;-3.390;2023-01-13T14:34:16;101996.59;;;11.16;88.69
23261;BME280;11799;47.740;-3.390;2023-01-13T14:36:42;101986.03;;;11.16;89.55
23261;BME280;11799;47.740;-3.390;2023-01-13T14:44:06;102011.63;;;11.15;88.89
23261;BME280;11799;47.740;-3.390;2023-01-13T14:46:40;101997.66;;;11.13;89.01
23261;BME280;11799;47.740;-3.390;2023-01-13T14:49:34;101997.84;;;11.10;89.56
23261;BME280;11799;47.740;-3.390;2023-01-13T14:52:16;102009.44;;;11.08;88.53
23261;BME280;11799;47.740;-3.390;2023-01-13T14:54:50;102016.53;;;11.07;89.01
23261;BME280;11799;47.740;-3.390;2023-01-13T15:10:18;102023.13;;;10.86;91.33
23261;BME280;11799;47.740;-3.390;2023-01-13T15:12:44;102009.16;;;10.84;91.97
23261;BME280;11799;47.740;-3.390;2023-01-13T15:15:23;102015.19;;;10.86;92.02
23261;BME280;11799;47.740;-3.390;2023-01-13T15:17:49;102018.88;;;10.83;92.75
23261;BME280;11799;47.740;-3.390;2023-01-13T15:20:17;102019.06;;;10.80;92.38
23261;BME280;11799;47.740;-3.390;2023-01-13T15:22:44;102016.50;;;10.79;92.68